Time;durP1;ratioP1;P1;durP2;ratioP2;P2;SDS_P1;SDS_P2;PMS_P1;PMS_P2;Temp;Humidity;BMP_temperature;BMP_pressure;BME280_temperature;BME280_humidity;BME280_pressure;Samples;Min_cycle;Max_cycle;Signal;HPM_P1;HPM_P2
2023/02/20 00:00:43;;;;;;;8.30;3.80;;;;;;;0.63;72.74;100179.38;220377;1257;139256;-65
2023/02/20 00:05:59;;;;;;;8.00;3.50;;;;;;;0.64;73.01;100169.77;218416;1259;139094;-68
2023/02/20 00:11:04;;;;;;;10.40;3.50;;;;;;;0.65;72.71;100172.98;217580;1257;139060;-69
2023/02/20 00:16:08;;;;;;;11.20;3.60;;;;;;;0.68;72.94;100168.21;218995;1257;140264;-68
2023/02/20 00:21:13;;;;;;;7.10;3.70;;;;;;;0.71;72.91;100165.17;218209;1257;139116;-68
2023/02/20 00:26:19;;;;;;;12.30;4.40;;;;;;;0.70;72.63;100170.15;218704;1258;139994;-67
2023/02/20 00:31:24;;;;;;;8.70;3.70;;;;;;;0.66;72.41;100167.88;218059;1257;139387;-66
2023/02/20 00:36:29;;;;;;;7.30;3.50;;;;;;;0.66;73.02;100165.12;218035;1260;139920;-67
2023/02/20 00:41:34;;;;;;;12.20;6.20;;;;;;;0.64;72.84;100166.92;218510;1257;139287;-65
2023/02/20 00:46:39;;;;;;;8.70;4.40;;;;;;;0.60;72.84;100168.75;217730;1257;140487;-65
2023/02/20 00:51:44;;;;;;;10.10;4.00;;;;;;;0.53;72.86;100163.52;218474;1257;141224;-66
2023/02/20 00:56:48;;;;;;;8.80;4.60;;;;;;;0.53;72.84;100168.94;218460;1257;139516;-67
2023/02/20 01:01:53;;;;;;;9.60;3.80;;;;;;;0.51;72.80;100169.32;218406;1257;139509;-67
2023/02/20 01:06:58;;;;;;;6.80;3.30;;;;;;;0.47;73.06;100162.77;218676;1257;139451;-66
2023/02/20 01:12:03;;;;;;;13.60;4.90;;;;;;;0.42;73.28;100157.18;217894;1258;139610;-67
2023/02/20 01:17:07;;;;;;;9.60;3.90;;;;;;;0.39;72.99;100159.04;218621;1257;140367;-66
2023/02/20 01:22:11;;;;;;;9.50;3.80;;;;;;;0.42;73.39;100162.65;217955;1257;139700;-67
2023/02/20 01:27:16;;;;;;;8.60;4.20;;;;;;;0.42;73.24;100147.21;218096;1257;138898;-63
2023/02/20 01:32:21;;;;;;;9.50;4.10;;;;;;;0.44;73.75;100137.79;219330;1257;138958;-65
2023/02/20 01:37:26;;;;;;;6.90;3.30;;;;;;;0.43;73.59;100128.02;218678;1257;139605;-66
2023/02/20 01:42:33;;;;;;;5.40;4.20;;;;;;;0.45;73.26;100122.45;220341;1257;139975;-67
2023/02/20 01:47:39;;;;;;;9.30;5.00;;;;;;;0.50;73.28;100127.32;219996;1256;140552;-68
2023/02/20 01:52:50;;;;;;;12.00;5.00;;;;;;;0.57;73.49;100133.90;219506;1257;139796;-68
2023/02/20 01:58:09;;;;;;;9.30;5.30;;;;;;;0.58;73.23;100136.81;217893;1257;139124;-68
2023/02/20 02:03:18;;;;;;;9.30;4.70;;;;;;;0.56;73.56;100121.27;218138;1257;138788;-70
2023/02/20 02:08:23;;;;;;;8.60;4.10;;;;;;;0.54;73.78;100118.52;217689;1257;139762;-70
2023/02/20 02:13:34;;;;;;;9.10;4.50;;;;;;;0.58;73.48;100124.06;218337;1256;138592;-68
2023/02/20 02:18:44;;;;;;;9.00;4.80;;;;;;;0.60;73.84;100128.92;218409;1257;139923;-68
2023/02/20 02:24:16;;;;;;;7.70;4.60;;;;;;;0.59;73.71;100127.25;219110;1256;139271;-66
2023/02/20 02:29:57;;;;;;;7.80;4.00;;;;;;;0.58;73.53;100120.52;218115;1257;139210;-67
2023/02/20 02:35:15;;;;;;;10.60;3.00;;;;;;;0.57;73.16;100105.99;218510;1256;139622;-66
2023/02/20 02:40:40;;;;;;;13.50;5.80;;;;;;;0.58;73.74;100088.13;218697;1257;139866;-66
2023/02/20 02:45:54;;;;;;;8.30;3.70;;;;;;;0.59;73.48;100092.66;218294;1259;139857;-65
2023/02/20 02:51:07;;;;;;;8.40;3.20;;;;;;;0.54;73.24;100079.00;218553;1257;138900;-65
2023/02/20 02:56:21;;;;;;;6.20;3.60;;;;;;;0.45;73.36;100077.60;219246;1256;139329;-65
2023/02/20 03:01:30;;;;;;;7.80;4.10;;;;;;;0.43;73.21;100073.30;217973;1257;139470;-64
2023/02/20 03:06:40;;;;;;;8.80;3.40;;;;;;;0.40;73.29;100077.13;217893;1257;139223;-65
2023/02/20 03:11:47;;;;;;;7.90;3.30;;;;;;;0.37;73.57;100079.55;218775;1256;139970;-64
2023/02/20 03:17:01;;;;;;;10.20;4.10;;;;;;;0.37;73.85;100077.09;219215;1256;139739;-65
2023/02/20 03:22:18;;;;;;;12.10;4.40;;;;;;;0.43;74.00;100067.08;218920;1256;140187;-64
2023/02/20 03:27:48;;;;;;;5.30;3.90;;;;;;;0.47;73.94;100057.34;219003;1256;140295;-65
2023/02/20 03:44:06;;;;;;;9.30;3.70;;;;;;;0.47;74.13;100052.92;220360;1256;139515;-64
2023/02/20 03:49:16;;;;;;;12.70;3.70;;;;;;;0.48;74.53;100056.70;217865;1256;139921;-67
2023/02/20 03:54:19;;;;;;;12.90;5.90;;;;;;;0.50;74.70;100057.02;217782;1259;140155;-67
2023/02/20 03:59:48;;;;;;;5.50;3.90;;;;;;;0.52;74.78;100045.06;217941;1258;138939;-65
2023/02/20 04:04:54;;;;;;;;;;;;;;;0.59;74.98;100042.87;218612;1256;140204;-66
2023/02/20 04:10:03;;;;;;;3.60;2.50;;;;;;;0.62;74.80;100038.64;218180;1256;126500;-64
2023/02/20 04:15:11;;;;;;;7.10;2.80;;;;;;;0.64;74.82;100025.38;218177;1257;139017;-66
2023/02/20 04:20:15;;;;;;;4.60;2.90;;;;;;;0.62;74.90;100011.52;217869;1256;138591;-67
2023/02/20 04:25:36;;;;;;;7.30;4.00;;;;;;;0.63;75.14;100019.98;217968;1256;139448;-66
2023/02/20 04:30:42;;;;;;;8.60;3.00;;;;;;;0.68;74.96;100012.23;217650;1257;139436;-66
2023/02/20 04:35:46;;;;;;;5.70;2.50;;;;;;;0.70;75.21;99997.30;218254;1256;139347;-66
2023/02/20 04:40:51;;;;;;;6.00;3.00;;;;;;;0.70;75.60;99993.46;218187;1256;138739;-65
2023/02/20 04:45:56;;;;;;;6.70;2.50;;;;;;;0.69;75.27;99992.85;218740;1257;138950;-65
2023/02/20 04:51:00;;;;;;;4.20;2.80;;;;;;;0.72;75.42;99992.79;219311;1256;138886;-64
2023/02/20 04:56:06;;;;;;;3.40;2.80;;;;;;;0.75;75.45;99987.38;218033;1256;139820;-64
2023/02/20 05:01:10;;;;;;;3.90;2.50;;;;;;;0.74;75.48;99979.05;219645;1256;138564;-65
2023/02/20 05:06:15;;;;;;;6.60;2.60;;;;;;;0.75;75.75;99975.44;218849;1256;139298;-65
2023/02/20 05:11:20;;;;;;;7.00;2.50;;;;;;;0.81;75.36;99967.80;218190;1259;139246;-65
2023/02/20 05:16:25;;;;;;;3.20;2.50;;;;;;;0.86;75.73;99956.77;220639;1256;139097;-69
2023/02/20 05:26:55;;;;;;;4.30;2.10;;;;;;;0.89;75.70;99942.77;220493;1256;140343;-70
2023/02/20 05:32:00;;;;;;;4.80;2.00;;;;;;;0.95;75.48;99934.09;220329;1256;140324;-71
2023/02/20 05:37:08;;;;;;;3.80;2.20;;;;;;;0.95;75.60;99935.63;220782;1256;140731;-71
2023/02/20 05:42:13;;;;;;;4.70;1.50;;;;;;;0.94;75.77;99927.11;219067;1256;138598;-73
2023/02/20 05:47:19;;;;;;;10.00;1.90;;;;;;;0.95;75.64;99930.75;218368;1256;139717;-73
2023/02/20 05:52:23;;;;;;;8.60;2.00;;;;;;;0.98;75.83;99920.54;217750;1257;139248;-73
2023/02/20 05:57:27;;;;;;;6.30;3.00;;;;;;;1.01;75.84;99908.48;218352;1256;139133;-70
2023/02/20 06:02:32;;;;;;;3.30;2.10;;;;;;;1.03;75.97;99906.29;217746;1256;139484;-70
2023/02/20 06:07:38;;;;;;;3.60;2.10;;;;;;;1.05;76.37;99906.05;217706;1256;138698;-70
2023/02/20 06:12:41;;;;;;;8.10;2.20;;;;;;;1.11;76.16;99905.94;217774;1257;139687;-70
2023/02/20 06:17:45;;;;;;;2.80;1.50;;;;;;;1.22;76.45;99899.75;218235;1256;139109;-71
2023/02/20 06:22:52;;;;;;;2.00;1.90;;;;;;;1.30;76.51;99887.80;217793;1256;142410;-70
2023/02/20 06:27:57;;;;;;;5.50;1.50;;;;;;;1.35;76.75;99875.90;217561;1257;138550;-70
2023/02/20 06:33:01;;;;;;;7.50;1.80;;;;;;;1.41;76.38;99871.02;217995;1259;140043;-72
2023/02/20 06:38:06;;;;;;;5.70;2.20;;;;;;;1.49;76.60;99878.13;217766;1257;138508;-71
2023/02/20 06:43:11;;;;;;;6.20;3.10;;;;;;;1.57;76.55;99875.30;217365;1257;138724;-69
2023/02/20 06:48:16;;;;;;;2.70;2.50;;;;;;;1.60;76.88;99872.63;217695;1257;139004;-68
2023/02/20 06:53:20;;;;;;;9.70;3.30;;;;;;;1.64;76.61;99867.09;217900;1259;139519;-67
2023/02/20 06:58:26;;;;;;;6.90;2.40;;;;;;;1.72;76.48;99854.86;218594;1256;139764;-71
2023/02/20 07:03:31;;;;;;;13.40;2.50;;;;;;;1.82;76.80;99848.30;218864;1256;140700;-67
2023/02/20 07:08:35;;;;;;;6.20;3.10;;;;;;;1.92;76.43;99846.43;218875;1257;139207;-67
2023/02/20 07:13:38;;;;;;;6.50;2.60;;;;;;;1.99;76.55;99845.07;219766;1256;139256;-68
2023/02/20 07:18:42;;;;;;;5.50;3.50;;;;;;;2.02;76.48;99842.28;219736;1256;139158;-70
2023/02/20 07:23:48;;;;;;;9.00;3.40;;;;;;;2.12;76.42;99837.11;218992;1257;139045;-69
2023/02/20 07:28:57;;;;;;;8.90;3.30;;;;;;;2.21;76.24;99826.65;219805;1257;139229;-68
2023/02/20 07:34:03;;;;;;;4.30;2.60;;;;;;;2.31;76.39;99820.48;218786;1257;138967;-67
2023/02/20 07:39:09;;;;;;;6.00;2.70;;;;;;;2.42;76.01;99808.71;217948;1257;139206;-68
2023/02/20 07:44:15;;;;;;;10.90;4.30;;;;;;;2.45;76.16;99813.00;219132;1256;162607;-68
2023/02/20 07:49:19;;;;;;;7.40;3.20;;;;;;;2.47;76.19;99793.88;218756;1256;139492;-68
2023/02/20 07:54:23;;;;;;;3.80;2.70;;;;;;;2.52;76.44;99776.02;218202;1257;139635;-72
2023/02/20 07:59:27;;;;;;;8.60;4.80;;;;;;;2.51;76.31;99770.91;217887;1257;139938;-68
2023/02/20 08:04:31;;;;;;;8.50;3.80;;;;;;;2.45;76.51;99768.11;218549;1257;139512;-67
2023/02/20 08:09:36;;;;;;;7.80;4.40;;;;;;;2.43;76.35;99759.48;218701;1256;138670;-68
2023/02/20 08:14:40;;;;;;;10.80;4.60;;;;;;;2.52;76.53;99747.19;217822;1257;139027;-71
2023/02/20 08:19:44;;;;;;;10.00;4.60;;;;;;;2.65;76.55;99730.30;217705;1259;140219;-73
2023/02/20 08:24:48;;;;;;;13.40;5.30;;;;;;;2.71;76.61;99727.83;217517;1260;140620;-74
2023/02/20 08:29:53;;;;;;;9.30;5.40;;;;;;;2.71;76.74;99714.90;217282;1259;139013;-72
2023/02/20 08:34:58;;;;;;;9.10;5.80;;;;;;;2.78;76.75;99708.41;217973;1258;138952;-68
2023/02/20 08:40:05;;;;;;;7.10;5.50;;;;;;;2.84;76.81;99693.41;218440;1256;139517;-71
2023/02/20 08:45:10;;;;;;;8.80;6.10;;;;;;;2.84;76.97;99691.35;217540;1259;138764;-71
2023/02/20 08:50:17;;;;;;;10.60;5.50;;;;;;;2.84;77.18;99692.73;218712;1256;139580;-71
2023/02/20 08:55:23;;;;;;;6.80;4.60;;;;;;;2.86;77.16;99687.80;218790;1259;139631;-70
2023/02/20 09:00:27;;;;;;;14.60;6.90;;;;;;;2.89;77.46;99683.32;219598;1256;140543;-69
2023/02/20 09:05:33;;;;;;;6.80;4.60;;;;;;;2.87;77.50;99675.02;218628;1257;141566;-68
2023/02/20 09:10:37;;;;;;;6.80;4.20;;;;;;;2.86;77.74;99658.41;219998;1256;138862;-71
2023/02/20 09:15:41;;;;;;;7.90;5.40;;;;;;;2.92;77.89;99639.11;220454;1255;139201;-72
2023/02/20 09:20:46;;;;;;;8.00;5.50;;;;;;;2.96;78.07;99634.34;220322;1257;139892;-68
2023/02/20 09:25:50;;;;;;;7.40;4.60;;;;;;;3.03;78.19;99622.98;220513;1256;139549;-70
2023/02/20 09:30:56;;;;;;;6.40;3.90;;;;;;;3.14;78.39;99613.25;219146;1256;139788;-70
2023/02/20 09:36:00;;;;;;;8.60;4.20;;;;;;;3.19;78.54;99601.88;218396;1256;138523;-68
2023/02/20 09:41:10;;;;;;;8.20;5.00;;;;;;;3.21;78.77;99581.75;219462;1256;140801;-68
2023/02/20 09:46:20;;;;;;;10.20;4.70;;;;;;;3.31;78.83;99568.21;218439;1257;139171;-72
2023/02/20 09:51:30;;;;;;;9.70;5.30;;;;;;;3.42;79.27;99558.26;218605;1257;140613;-69
2023/02/20 09:56:40;;;;;;;6.30;5.40;;;;;;;3.46;79.29;99550.17;217672;1259;138701;-66
2023/02/20 10:01:56;;;;;;;9.10;5.00;;;;;;;3.50;79.47;99539.43;217632;1256;139539;-69
2023/02/20 10:07:28;;;;;;;6.80;3.70;;;;;;;3.54;79.65;99530.18;217818;1257;140181;-70
2023/02/20 10:12:53;;;;;;;6.50;4.30;;;;;;;3.56;80.11;99511.81;217557;1257;140052;-65
2023/02/20 10:18:31;;;;;;;6.60;3.90;;;;;;;3.62;80.18;99490.86;217521;1256;139491;-69
2023/02/20 10:23:55;;;;;;;6.60;4.20;;;;;;;3.69;80.28;99470.23;217911;1257;139140;-66
2023/02/20 10:29:40;;;;;;;7.90;4.10;;;;;;;3.83;80.32;99446.72;218009;1259;409245;-67
2023/02/20 10:35:03;;;;;;;5.50;5.00;;;;;;;3.93;80.71;99425.66;218101;1259;140077;-69
2023/02/20 10:40:14;;;;;;;6.10;4.30;;;;;;;4.01;80.79;99404.48;218041;1257;139200;-68
2023/02/20 10:45:41;;;;;;;6.30;4.80;;;;;;;4.07;80.83;99400.31;218081;1257;138874;-70
2023/02/20 10:51:10;;;;;;;7.90;5.40;;;;;;;4.08;81.01;99385.13;218014;1256;150173;-70
2023/02/20 10:56:32;;;;;;;6.00;5.40;;;;;;;4.04;81.30;99367.19;219988;1256;139110;-77
2023/02/20 11:01:39;;;;;;;6.90;5.30;;;;;;;4.05;81.41;99348.94;217811;1256;139276;-70
2023/02/20 11:06:48;;;;;;;7.50;5.40;;;;;;;4.13;81.58;99340.88;217839;1256;140525;-70
2023/02/20 11:11:54;;;;;;;8.00;6.00;;;;;;;4.15;81.83;99332.60;217692;1257;139667;-69
2023/02/20 11:17:20;;;;;;;6.00;4.60;;;;;;;4.17;82.25;99281.51;220364;1257;140577;-70
2023/02/20 11:23:06;;;;;;;6.30;4.60;;;;;;;4.28;82.17;99288.42;220483;1256;149602;-70
2023/02/20 11:28:23;;;;;;;8.00;5.60;;;;;;;4.34;82.22;99272.87;218963;1263;140369;-70
2023/02/20 11:33:32;;;;;;;7.70;3.80;;;;;;;4.48;82.38;99245.48;218485;1260;139304;-68
2023/02/20 11:38:38;;;;;;;10.10;6.50;;;;;;;4.62;82.29;99234.02;217227;1263;141742;-70
2023/02/20 11:43:46;;;;;;;8.30;5.50;;;;;;;4.73;82.93;99214.81;217633;1260;139847;-70
2023/02/20 11:49:25;;;;;;;15.30;6.20;;;;;;;4.85;82.77;99213.42;217152;1263;139551;-69
2023/02/20 11:54:31;;;;;;;9.60;5.70;;;;;;;4.99;82.69;99191.89;216970;1264;140348;-69
2023/02/20 11:59:50;;;;;;;9.10;5.70;;;;;;;5.10;82.86;99163.52;217584;1257;140386;-70
2023/02/20 12:05:13;;;;;;;7.20;5.50;;;;;;;5.22;83.01;99131.67;217989;1256;208685;-68
2023/02/20 12:10:50;;;;;;;9.70;7.50;;;;;;;5.33;82.84;99113.49;217716;1256;139815;-69
2023/02/20 12:16:07;;;;;;;8.20;5.60;;;;;;;5.47;82.76;99093.72;217919;1256;139043;-69
2023/02/20 12:21:36;;;;;;;8.70;5.90;;;;;;;5.54;82.75;99075.33;217943;1257;141737;-70
2023/02/20 12:27:08;;;;;;;8.20;6.00;;;;;;;5.65;82.44;99065.45;217791;1257;140951;-70
2023/02/20 12:32:15;;;;;;;7.80;5.90;;;;;;;5.70;82.75;99050.33;218605;1256;140763;-69
2023/02/20 12:37:46;;;;;;;7.90;6.10;;;;;;;5.79;82.37;99038.95;218496;1257;138868;-70
2023/02/20 12:43:19;;;;;;;8.70;6.10;;;;;;;5.99;82.32;99016.58;217907;1258;139552;-70
2023/02/20 12:48:42;;;;;;;9.40;4.80;;;;;;;6.14;82.42;98999.48;217925;1257;139863;-70
2023/02/20 12:53:59;;;;;;;8.40;5.70;;;;;;;6.24;82.44;98990.55;218022;1257;139708;-71
2023/02/20 12:59:22;;;;;;;9.70;5.20;;;;;;;6.37;82.11;98984.64;219299;1257;139794;-71
2023/02/20 13:04:47;;;;;;;7.10;4.60;;;;;;;6.51;82.04;98968.13;218157;1259;139832;-69
2023/02/20 13:10:11;;;;;;;7.80;4.90;;;;;;;6.69;81.86;98945.45;218000;1259;140012;-70
2023/02/20 13:15:33;;;;;;;6.70;5.00;;;;;;;6.83;81.65;98955.96;217970;1259;140161;-70
2023/02/20 13:21:04;;;;;;;8.40;4.90;;;;;;;6.89;81.33;98954.65;217923;1259;140532;-70
2023/02/20 13:26:30;;;;;;;9.90;5.30;;;;;;;6.92;81.30;98947.46;217726;1261;139811;-70
2023/02/20 13:31:37;;;;;;;6.90;5.60;;;;;;;6.92;80.63;98945.35;219152;1259;139221;-70
2023/02/20 13:36:49;;;;;;;8.70;5.30;;;;;;;6.92;80.66;98938.53;217875;1257;139088;-69
2023/02/20 13:41:54;;;;;;;6.10;4.00;;;;;;;6.95;80.33;98934.25;217726;1259;139534;-70
2023/02/20 13:47:01;;;;;;;8.80;3.80;;;;;;;6.94;80.39;98932.52;217641;1257;139557;-70
2023/02/20 13:52:25;;;;;;;;;;;;;;;6.93;80.27;98926.87;217943;1256;139605;-70
2023/02/20 13:57:32;;;;;;;7.00;4.30;;;;;;;6.93;80.14;98923.19;218359;1257;126175;-70
2023/02/20 14:02:40;;;;;;;4.60;3.20;;;;;;;6.97;80.24;98925.70;218555;1259;141445;-70
2023/02/20 14:07:45;;;;;;;5.40;3.80;;;;;;;7.00;79.70;98930.08;218731;1256;139868;-71
2023/02/20 14:13:08;;;;;;;6.30;3.40;;;;;;;7.10;79.49;98922.84;218028;1256;139141;-71
2023/02/20 14:18:23;;;;;;;3.80;3.10;;;;;;;7.15;79.09;98908.08;218115;1258;138744;-70
2023/02/20 14:23:30;;;;;;;4.10;2.20;;;;;;;7.21;78.79;98908.36;217490;1257;139680;-70
2023/02/20 14:28:43;;;;;;;5.00;2.50;;;;;;;7.25;78.58;98900.34;217697;1258;142037;-71
2023/02/20 14:33:50;;;;;;;4.30;3.10;;;;;;;7.29;78.58;98904.97;217619;1257;139896;-70
2023/02/20 14:39:09;;;;;;;3.50;3.20;;;;;;;7.33;78.45;98898.86;217983;1259;139445;-70
2023/02/20 14:44:17;;;;;;;4.70;3.10;;;;;;;7.30;78.16;98911.75;218981;1259;138906;-70
2023/02/20 14:49:31;;;;;;;5.10;3.30;;;;;;;7.34;77.91;98909.36;217796;1258;139659;-70
2023/02/20 14:54:39;;;;;;;4.60;3.10;;;;;;;7.37;77.92;98907.56;217911;1259;139699;-70
2023/02/20 14:59:44;;;;;;;7.20;3.80;;;;;;;7.36;77.96;98918.09;219834;1257;140167;-72
2023/02/20 15:04:54;;;;;;;6.50;3.70;;;;;;;7.41;77.44;98896.95;217968;1257;140243;-71
2023/02/20 15:10:01;;;;;;;7.80;3.90;;;;;;;7.48;77.49;98894.02;219830;1256;140463;-73
2023/02/20 15:15:08;;;;;;;7.10;4.10;;;;;;;7.49;77.12;98904.15;220356;1257;139311;-72
2023/02/20 15:20:34;;;;;;;4.90;3.20;;;;;;;7.51;77.01;98892.53;219545;1256;139998;-71
2023/02/20 15:25:39;;;;;;;5.00;3.10;;;;;;;7.55;77.02;98888.21;217832;1259;151312;-71
2023/02/20 15:31:09;;;;;;;4.60;3.10;;;;;;;7.54;77.37;98885.65;217862;1257;139964;-70
2023/02/20 15:36:16;;;;;;;4.40;3.30;;;;;;;7.55;77.30;98885.39;217606;1258;139233;-69
2023/02/20 15:41:24;;;;;;;4.10;3.60;;;;;;;7.49;77.48;98887.77;217993;1257;139090;-70
2023/02/20 15:46:29;;;;;;;5.60;3.10;;;;;;;7.50;77.25;98880.47;218538;1259;141652;-70
2023/02/20 15:51:39;;;;;;;4.10;3.70;;;;;;;7.47;77.43;98878.49;218504;1258;138624;-71
2023/02/20 15:56:46;;;;;;;8.40;3.60;;;;;;;7.46;77.33;98884.27;218216;1259;140048;-72
2023/02/20 16:01:52;;;;;;;5.80;3.20;;;;;;;7.47;77.21;98887.05;218353;1259;139432;-71
2023/02/20 16:06:59;;;;;;;6.50;5.30;;;;;;;7.46;77.22;98885.23;217609;1257;139430;-71
2023/02/20 16:12:06;;;;;;;3.30;3.00;;;;;;;7.47;77.45;98883.34;217616;1258;140032;-71
2023/02/20 16:17:22;;;;;;;4.20;3.20;;;;;;;7.47;77.36;98888.20;217977;1258;139687;-71
2023/02/20 16:22:32;;;;;;;5.20;3.20;;;;;;;7.48;77.59;98885.52;218457;1259;139544;-71
2023/02/20 16:27:43;;;;;;;5.70;4.20;;;;;;;7.52;77.58;98874.31;218139;1258;141767;-71
2023/02/20 16:32:52;;;;;;;4.60;3.30;;;;;;;7.53;77.58;98875.88;218330;1257;140373;-71
2023/02/20 16:38:00;;;;;;;5.90;3.10;;;;;;;7.57;77.54;98878.86;217959;1258;139266;-72
2023/02/20 16:43:06;;;;;;;7.80;2.90;;;;;;;7.60;77.48;98873.27;217802;1258;140040;-71
2023/02/20 16:48:16;;;;;;;6.20;3.10;;;;;;;7.61;77.61;98868.17;217863;1257;138543;-72
2023/02/20 16:53:21;;;;;;;4.60;3.10;;;;;;;7.66;77.58;98884.48;217574;1259;139700;-72
2023/02/20 16:58:25;;;;;;;5.40;3.40;;;;;;;7.68;77.36;98865.63;217500;1258;139873;-70
2023/02/20 17:03:30;;;;;;;4.40;3.60;;;;;;;7.69;77.14;98868.30;217469;1258;140284;-71
2023/02/20 17:08:36;;;;;;;5.80;3.80;;;;;;;7.69;77.32;98864.05;220677;1256;140055;-72
2023/02/20 17:13:40;;;;;;;6.90;4.40;;;;;;;7.69;77.53;98867.36;219976;1259;139518;-70
2023/02/20 17:18:44;;;;;;;4.60;3.20;;;;;;;7.73;77.43;98859.06;219117;1256;139359;-72
2023/02/20 17:23:55;;;;;;;4.40;3.70;;;;;;;7.73;77.42;98857.31;219612;1258;141007;-72
2023/02/20 17:28:59;;;;;;;5.00;3.60;;;;;;;7.78;77.24;98855.38;218732;1257;139111;-73
2023/02/20 17:34:06;;;;;;;6.20;3.60;;;;;;;7.80;77.24;98859.14;217921;1260;139496;-71
2023/02/20 17:39:11;;;;;;;5.20;4.00;;;;;;;7.83;77.23;98867.04;218453;1257;140564;-73
2023/02/20 17:44:19;;;;;;;4.00;3.50;;;;;;;7.85;77.04;98868.19;217661;1257;140691;-72
2023/02/20 17:49:26;;;;;;;5.50;3.60;;;;;;;7.85;77.22;98853.65;217925;1256;138836;-70
2023/02/20 17:54:33;;;;;;;4.80;3.90;;;;;;;7.85;77.09;98856.88;218656;1257;140429;-71
2023/02/20 17:59:41;;;;;;;8.00;3.50;;;;;;;7.85;77.27;98850.05;218071;1260;140528;-71
2023/02/20 18:04:46;;;;;;;5.60;3.70;;;;;;;7.88;77.11;98856.94;217846;1257;139341;-70
2023/02/20 18:09:54;;;;;;;;;;;;;;;7.89;77.02;98860.95;217774;1260;140004;-71
2023/02/20 18:15:00;;;;;;;3.90;3.50;;;;;;;7.87;76.99;98862.66;218077;1259;126783;-72
2023/02/20 18:20:06;;;;;;;4.60;3.40;;;;;;;7.90;77.14;98866.23;217475;1260;139549;-71
2023/02/20 18:25:15;;;;;;;2.70;2.50;;;;;;;7.91;77.01;98864.27;217590;1257;138485;-71
2023/02/20 18:30:21;;;;;;;6.80;4.80;;;;;;;7.90;76.82;98861.02;217904;1257;139257;-71
2023/02/20 18:35:30;;;;;;;3.50;3.10;;;;;;;7.88;76.85;98849.41;217747;1258;138960;-73
2023/02/20 18:40:37;;;;;;;7.60;4.20;;;;;;;7.86;77.10;98853.78;218154;1260;139186;-71
2023/02/20 18:45:46;;;;;;;5.60;3.90;;;;;;;7.87;76.99;98840.70;217642;1260;141121;-72
2023/02/20 18:50:50;;;;;;;5.90;3.70;;;;;;;7.88;76.95;98827.17;218647;1257;139435;-71
2023/02/20 18:55:55;;;;;;;8.40;4.60;;;;;;;7.86;77.18;98825.50;218379;1260;139141;-71
2023/02/20 19:01:00;;;;;;;7.80;3.80;;;;;;;7.87;77.32;98815.32;217664;1260;140400;-72
2023/02/20 19:06:05;;;;;;;6.30;4.70;;;;;;;7.84;77.36;98814.15;217514;1260;139201;-73
2023/02/20 19:11:10;;;;;;;4.80;4.30;;;;;;;7.83;77.55;98803.89;219443;1256;140187;-73
2023/02/20 19:16:19;;;;;;;6.50;4.80;;;;;;;7.85;77.48;98800.00;219679;1257;139010;-72
2023/02/20 19:21:26;;;;;;;5.80;4.20;;;;;;;7.82;77.72;98796.45;218895;1256;139343;-71
2023/02/20 19:26:33;;;;;;;7.90;5.20;;;;;;;7.82;77.81;98802.54;217810;1257;139768;-72
2023/02/20 19:31:38;;;;;;;7.10;5.40;;;;;;;7.81;77.82;98784.23;218488;1257;140652;-71
2023/02/20 19:36:43;;;;;;;7.50;5.80;;;;;;;7.78;78.11;98787.52;217714;1257;139004;-72
2023/02/20 19:41:51;;;;;;;8.80;6.40;;;;;;;7.75;78.21;98794.27;218941;1255;139751;-72
2023/02/20 19:46:57;;;;;;;8.40;6.60;;;;;;;7.73;78.17;98796.55;218150;1257;139169;-70
2023/02/20 19:52:04;;;;;;;5.70;4.60;;;;;;;7.70;78.32;98802.65;217739;1259;139482;-71
2023/02/20 19:57:12;;;;;;;8.50;5.90;;;;;;;7.67;78.81;98798.94;218023;1257;140136;-71
2023/02/20 20:02:17;;;;;;;8.90;5.90;;;;;;;7.61;78.94;98795.78;217989;1256;140236;-71
2023/02/20 20:07:27;;;;;;;9.00;5.10;;;;;;;7.55;79.38;98812.95;218222;1257;140136;-70
2023/02/20 20:12:47;;;;;;;7.50;5.00;;;;;;;7.47;79.59;98806.64;218041;1257;139676;-70
2023/02/20 20:19:43;;;;;;;7.70;4.60;;;;;;;7.49;79.77;98809.13;214408;1291;682051;-71
2023/02/20 20:25:03;;;;;;;9.80;4.80;;;;;;;7.44;80.08;98817.61;216133;1269;138202;-72
2023/02/20 20:30:14;;;;;;;6.70;5.00;;;;;;;7.42;80.35;98812.02;215549;1267;1101709;-71
2023/02/20 20:35:20;;;;;;;8.60;5.80;;;;;;;7.41;80.48;98819.36;216666;1268;139651;-71
2023/02/20 20:40:26;;;;;;;7.20;5.90;;;;;;;7.37;80.31;98825.16;218683;1259;139533;-71
2023/02/20 20:45:30;;;;;;;8.40;5.50;;;;;;;7.36;80.92;98822.75;217590;1256;139403;-71
2023/02/20 20:50:34;;;;;;;8.10;5.30;;;;;;;7.35;80.89;98829.52;217639;1258;139230;-67
2023/02/20 20:55:37;;;;;;;10.60;6.60;;;;;;;7.35;81.04;98821.52;220530;1256;140334;-67
2023/02/20 21:00:40;;;;;;;8.40;6.20;;;;;;;7.30;81.35;98824.88;220549;1257;139495;-71
2023/02/20 21:05:43;;;;;;;13.70;8.20;;;;;;;7.25;81.59;98824.99;219930;1257;139851;-72
2023/02/20 21:10:47;;;;;;;10.80;7.30;;;;;;;7.27;81.72;98824.58;219179;1260;139597;-69
2023/02/20 21:15:50;;;;;;;11.50;7.20;;;;;;;7.30;81.94;98823.36;219029;1260;139227;-67
2023/02/20 21:20:56;;;;;;;9.30;6.30;;;;;;;7.32;81.80;98819.15;217939;1257;140268;-69
2023/02/20 21:26:00;;;;;;;9.30;6.10;;;;;;;7.31;81.72;98809.06;217962;1260;139149;-69
2023/02/20 21:31:03;;;;;;;9.50;6.70;;;;;;;7.27;82.27;98817.19;217532;1260;139157;-71
2023/02/20 21:36:07;;;;;;;9.60;6.10;;;;;;;7.26;82.31;98815.90;217729;1260;140395;-73
2023/02/20 21:44:25;;;;;;;8.20;7.10;;;;;;;7.28;82.17;98821.98;218513;1258;139234;-70
2023/02/20 21:46:35;;;;;;;8.60;6.30;;;;;;;7.32;82.11;98821.80;217882;1257;139706;-71
2023/02/20 21:51:39;;;;;;;10.70;7.30;;;;;;;7.34;82.28;98808.14;217411;1258;138881;-68
2023/02/20 21:56:44;;;;;;;14.00;7.10;;;;;;;7.35;82.41;98814.27;217482;1257;139096;-67
